createdAt,value
2023-04-28T00:00:01.968Z,371.00
2023-04-28T00:01:02.012Z,370.00
2023-04-28T00:02:02.054Z,370.00
2023-04-28T00:03:02.138Z,372.00
2023-04-28T00:04:02.377Z,373.00
2023-04-28T00:05:02.254Z,374.00
2023-04-28T00:06:02.228Z,374.00
2023-04-28T00:07:02.233Z,371.00
2023-04-28T00:08:02.291Z,369.00
2023-04-28T00:09:02.336Z,372.00
2023-04-28T00:10:02.369Z,374.00
2023-04-28T00:11:02.398Z,372.00
2023-04-28T00:12:02.458Z,371.00
2023-04-28T00:13:02.527Z,373.00
2023-04-28T00:14:02.541Z,373.00
2023-04-28T00:15:02.583Z,374.00
2023-04-28T00:16:02.681Z,374.00
2023-04-28T00:17:02.725Z,373.00
2023-04-28T00:18:02.742Z,374.00
2023-04-28T00:19:02.755Z,374.00
2023-04-28T00:20:02.820Z,375.00
2023-04-28T00:21:02.892Z,375.00
2023-04-28T00:22:02.920Z,375.00
2023-04-28T00:23:03.004Z,374.00
2023-04-28T00:24:02.999Z,375.00
2023-04-28T00:25:03.066Z,374.00
2023-04-28T00:26:03.119Z,374.00
2023-04-28T00:27:03.181Z,374.00
2023-04-28T00:28:03.272Z,376.00
2023-04-28T00:29:03.259Z,379.00
2023-04-28T00:30:03.312Z,379.00
2023-04-28T00:31:03.371Z,377.00
2023-04-28T00:32:03.579Z,376.00
2023-04-28T00:33:03.484Z,377.00
2023-04-28T00:34:03.482Z,378.00
2023-04-28T00:35:03.554Z,379.00
2023-04-28T00:36:03.596Z,378.00
2023-04-28T00:37:03.605Z,377.00
2023-04-28T00:38:03.653Z,376.00
2023-04-28T00:39:03.726Z,376.00
2023-04-28T00:40:03.735Z,379.00
2023-04-28T00:41:03.781Z,379.00
2023-04-28T00:42:03.860Z,380.00
2023-04-28T00:43:03.899Z,378.00
2023-04-28T00:44:03.951Z,377.00
2023-04-28T00:45:03.979Z,374.00
2023-04-28T00:46:04.041Z,373.00
2023-04-28T00:47:04.084Z,372.00
2023-04-28T00:48:04.185Z,373.00
2023-04-28T00:49:04.211Z,374.00
2023-04-28T00:50:04.206Z,374.00
2023-04-28T00:51:04.317Z,375.00
2023-04-28T00:52:04.315Z,376.00
2023-04-28T00:53:04.447Z,375.00
2023-04-28T00:54:04.445Z,378.00
2023-04-28T00:55:04.490Z,379.00
2023-04-28T00:56:04.549Z,380.00
2023-04-28T00:57:04.612Z,380.00
2023-04-28T00:58:04.672Z,379.00
2023-04-28T00:59:04.726Z,380.00
2023-04-28T01:00:04.733Z,381.00
2023-04-28T01:01:04.829Z,382.00
2023-04-28T01:02:04.895Z,382.00
2023-04-28T01:03:05.060Z,382.00
2023-04-28T01:04:05.234Z,380.00
2023-04-28T01:05:04.981Z,379.00
2023-04-28T01:06:05.030Z,377.00
2023-04-28T01:07:05.089Z,376.00
2023-04-28T01:08:05.159Z,376.00
2023-04-28T01:09:05.200Z,375.00
2023-04-28T01:10:05.275Z,374.00
2023-04-28T01:11:05.335Z,375.00
2023-04-28T01:12:05.352Z,374.00
2023-04-28T01:13:05.382Z,373.00
2023-04-28T01:14:05.460Z,373.00
2023-04-28T01:15:05.512Z,372.00
2023-04-28T01:16:05.578Z,373.00
2023-04-28T01:17:05.621Z,375.00
2023-04-28T01:18:05.706Z,378.00
2023-04-28T01:19:05.715Z,381.00
2023-04-28T01:20:05.762Z,380.00
2023-04-28T01:21:05.851Z,377.00
2023-04-28T01:22:05.866Z,374.00
2023-04-28T01:23:05.916Z,375.00
2023-04-28T01:24:05.972Z,374.00
2023-04-28T01:25:06.080Z,373.00
2023-04-28T01:26:06.063Z,372.00
2023-04-28T01:27:06.151Z,373.00
2023-04-28T01:28:06.215Z,374.00
2023-04-28T01:29:06.210Z,375.00
2023-04-28T01:30:06.314Z,377.00
2023-04-28T01:31:06.371Z,378.00
2023-04-28T01:32:06.403Z,378.00
2023-04-28T01:33:06.475Z,376.00
2023-04-28T01:34:06.520Z,373.00
2023-04-28T01:35:06.561Z,374.00
2023-04-28T01:36:06.621Z,375.00
2023-04-28T01:37:06.668Z,373.00
2023-04-28T01:38:06.733Z,375.00
2023-04-28T01:39:06.801Z,373.00
2023-04-28T01:40:06.812Z,371.00
2023-04-28T01:41:06.916Z,369.00
2023-04-28T01:42:06.907Z,368.00
2023-04-28T01:43:07.023Z,369.00
2023-04-28T01:44:07.081Z,371.00
2023-04-28T01:45:07.111Z,372.00
2023-04-28T01:46:07.216Z,372.00
2023-04-28T01:47:07.214Z,373.00
2023-04-28T01:48:07.369Z,374.00
2023-04-28T01:49:07.314Z,374.00
2023-04-28T01:50:07.397Z,374.00
2023-04-28T01:51:07.441Z,377.00
2023-04-28T01:52:07.487Z,377.00
2023-04-28T01:53:07.556Z,376.00
2023-04-28T01:54:07.588Z,375.00
2023-04-28T01:55:07.692Z,374.00
2023-04-28T01:56:07.665Z,373.00
2023-04-28T01:57:07.745Z,374.00
2023-04-28T01:58:07.796Z,377.00
2023-04-28T01:59:07.849Z,377.00
2023-04-28T02:00:07.901Z,379.00
2023-04-28T02:01:08.012Z,377.00
2023-04-28T02:02:08.022Z,379.00
2023-04-28T02:03:08.276Z,377.00
2023-04-28T02:04:08.220Z,379.00
2023-04-28T02:05:08.197Z,380.00
2023-04-28T02:06:08.229Z,380.00
2023-04-28T02:07:08.315Z,380.00
2023-04-28T02:08:08.364Z,380.00
2023-04-28T02:09:08.427Z,380.00
2023-04-28T02:10:08.487Z,380.00
2023-04-28T02:11:08.522Z,382.00
2023-04-28T02:12:08.593Z,380.00
2023-04-28T02:13:08.663Z,379.00
2023-04-28T02:14:08.716Z,379.00
2023-04-28T02:15:08.750Z,380.00
2023-04-28T02:16:08.850Z,379.00
2023-04-28T02:17:08.871Z,376.00
2023-04-28T02:18:09.000Z,376.00
2023-04-28T02:19:08.989Z,375.00
2023-04-28T02:20:09.019Z,376.00
2023-04-28T02:21:09.123Z,376.00
2023-04-28T02:22:09.179Z,379.00
2023-04-28T02:23:09.255Z,380.00
2023-04-28T02:24:09.277Z,380.00
2023-04-28T02:25:09.392Z,380.00
2023-04-28T02:26:09.358Z,378.00
2023-04-28T02:27:09.417Z,379.00
2023-04-28T02:28:09.525Z,383.00
2023-04-28T02:29:09.584Z,384.00
2023-04-28T02:30:09.604Z,382.00
2023-04-28T02:31:09.784Z,381.00
2023-04-28T02:32:09.747Z,381.00
2023-04-28T02:33:09.848Z,381.00
2023-04-28T02:34:09.877Z,382.00
2023-04-28T02:35:09.884Z,382.00
2023-04-28T02:36:09.967Z,379.00
2023-04-28T02:37:10.018Z,380.00
2023-04-28T02:38:10.109Z,383.00
2023-04-28T02:39:10.104Z,380.00
2023-04-28T02:40:10.193Z,378.00
2023-04-28T02:41:10.222Z,378.00
2023-04-28T02:42:10.301Z,376.00
2023-04-28T02:43:10.350Z,377.00
2023-04-28T02:44:10.406Z,378.00
2023-04-28T02:45:10.461Z,378.00
2023-04-28T02:46:10.562Z,379.00
2023-04-28T02:47:10.609Z,381.00
2023-04-28T02:48:10.658Z,381.00
2023-04-28T02:49:10.710Z,382.00
2023-04-28T02:50:10.757Z,383.00
2023-04-28T02:51:10.851Z,385.00
2023-04-28T02:52:10.897Z,385.00
2023-04-28T02:53:10.988Z,389.00
2023-04-28T02:54:10.984Z,389.00
2023-04-28T02:55:11.080Z,390.00
2023-04-28T02:56:11.156Z,390.00
2023-04-28T02:57:11.201Z,387.00
2023-04-28T02:58:11.270Z,386.00
2023-04-28T02:59:11.306Z,388.00
2023-04-28T03:00:11.447Z,386.00
2023-04-28T03:01:11.472Z,384.00
2023-04-28T03:02:11.504Z,386.00
2023-04-28T03:03:11.638Z,391.00
2023-04-28T03:04:11.796Z,391.00
2023-04-28T03:05:11.727Z,391.00
2023-04-28T03:06:11.789Z,391.00
2023-04-28T03:07:11.815Z,390.00
2023-04-28T03:08:11.871Z,390.00
2023-04-28T03:09:11.960Z,394.00
2023-04-28T03:10:12.032Z,393.00
2023-04-28T03:11:12.066Z,392.00
2023-04-28T03:12:12.146Z,393.00
2023-04-28T03:13:12.176Z,395.00
2023-04-28T03:14:12.292Z,394.00
2023-04-28T03:15:14.051Z,391.00
2023-04-28T03:16:12.452Z,391.00
2023-04-28T03:17:12.437Z,389.00
2023-04-28T03:18:12.525Z,389.00
2023-04-28T03:19:12.571Z,391.00
2023-04-28T03:20:12.620Z,392.00
2023-04-28T03:21:12.719Z,395.00
2023-04-28T03:22:12.716Z,395.00
2023-04-28T03:23:12.799Z,396.00
2023-04-28T03:24:12.945Z,393.00
2023-04-28T03:25:12.901Z,393.00
2023-04-28T03:26:12.953Z,394.00
2023-04-28T03:27:13.022Z,394.00
2023-04-28T03:28:13.066Z,393.00
2023-04-28T03:29:13.157Z,391.00
2023-04-28T03:30:13.227Z,389.00
2023-04-28T03:31:13.264Z,385.00
2023-04-28T03:32:13.393Z,387.00
2023-04-28T03:33:13.378Z,386.00
2023-04-28T03:34:13.488Z,388.00
2023-04-28T03:35:13.552Z,390.00
2023-04-28T03:36:13.612Z,391.00
2023-04-28T03:37:13.643Z,392.00
2023-04-28T03:38:13.719Z,389.00
2023-04-28T03:39:13.793Z,390.00
2023-04-28T03:40:13.844Z,390.00
2023-04-28T03:41:13.910Z,387.00
2023-04-28T03:42:13.977Z,388.00
2023-04-28T03:43:14.050Z,391.00
2023-04-28T03:44:14.200Z,393.00
2023-04-28T03:45:14.182Z,394.00
2023-04-28T03:46:14.267Z,392.00
2023-04-28T03:47:14.326Z,392.00
2023-04-28T03:48:14.398Z,389.00
2023-04-28T03:49:14.410Z,390.00
2023-04-28T03:50:14.515Z,390.00
2023-04-28T03:51:14.551Z,390.00
2023-04-28T03:52:14.613Z,392.00
2023-04-28T03:53:14.668Z,393.00
2023-04-28T03:54:14.930Z,394.00
2023-04-28T03:55:14.794Z,391.00
2023-04-28T03:56:14.872Z,389.00
2023-04-28T03:57:14.938Z,390.00
2023-04-28T03:58:14.975Z,393.00
2023-04-28T03:59:15.060Z,393.00
2023-04-28T04:00:15.105Z,392.00
2023-04-28T04:01:15.170Z,390.00
2023-04-28T04:02:15.255Z,388.00
2023-04-28T04:03:15.416Z,390.00
2023-04-28T04:04:15.849Z,391.00
2023-04-28T04:05:15.481Z,391.00
2023-04-28T04:06:15.472Z,393.00
2023-04-28T04:07:15.527Z,395.00
2023-04-28T04:08:15.598Z,394.00
2023-04-28T04:09:15.650Z,395.00
2023-04-28T04:10:15.694Z,396.00
2023-04-28T04:11:15.692Z,396.00
2023-04-28T04:12:15.765Z,393.00
2023-04-28T04:13:15.795Z,393.00
2023-04-28T04:14:16.040Z,391.00
2023-04-28T04:15:15.900Z,391.00
2023-04-28T04:16:16.032Z,392.00
2023-04-28T04:17:16.021Z,394.00
2023-04-28T04:18:16.053Z,395.00
2023-04-28T04:19:16.121Z,395.00
2023-04-28T04:20:16.164Z,394.00
2023-04-28T04:21:16.193Z,393.00
2023-04-28T04:22:16.253Z,392.00
2023-04-28T04:23:16.303Z,394.00
2023-04-28T04:24:16.533Z,391.00
2023-04-28T04:25:16.432Z,395.00
2023-04-28T04:26:16.475Z,394.00
2023-04-28T04:27:16.516Z,395.00
2023-04-28T04:28:16.564Z,398.00
2023-04-28T04:29:16.617Z,394.00
2023-04-28T04:30:16.661Z,393.00
2023-04-28T04:31:16.736Z,395.00
2023-04-28T04:32:16.758Z,394.00
2023-04-28T04:33:16.778Z,396.00
2023-04-28T04:34:17.058Z,395.00
2023-04-28T04:35:16.954Z,393.00
2023-04-28T04:36:16.952Z,391.00
2023-04-28T04:37:17.031Z,391.00
2023-04-28T04:38:17.027Z,388.00
2023-04-28T04:39:17.049Z,389.00
2023-04-28T04:40:17.115Z,389.00
2023-04-28T04:41:17.203Z,391.00
2023-04-28T04:43:18.194Z,390.00
2023-04-28T04:44:17.356Z,393.00
2023-04-28T04:45:17.204Z,393.00
2023-04-28T04:46:17.259Z,393.00
2023-04-28T04:47:17.195Z,389.00
2023-04-28T04:48:17.227Z,392.00
2023-04-28T04:49:17.157Z,394.00
2023-04-28T04:50:17.164Z,394.00
2023-04-28T04:51:17.210Z,396.00
2023-04-28T04:52:17.137Z,395.00
2023-04-28T04:53:17.241Z,393.00
2023-04-28T04:54:17.494Z,393.00
2023-04-28T04:55:17.363Z,391.00
2023-04-28T04:56:17.369Z,389.00
2023-04-28T04:57:17.438Z,388.00
2023-04-28T04:58:17.467Z,388.00
2023-04-28T04:59:17.536Z,392.00
2023-04-28T05:00:17.601Z,393.00
2023-04-28T05:01:17.732Z,394.00
2023-04-28T05:02:17.876Z,396.00
2023-04-28T05:03:17.921Z,397.00
2023-04-28T05:04:18.265Z,401.00
2023-04-28T05:05:21.962Z,405.00
2023-04-28T05:06:17.867Z,404.00
2023-04-28T05:07:17.909Z,403.00
2023-04-28T05:08:17.865Z,396.00
2023-04-28T05:09:17.875Z,395.00
2023-04-28T05:10:17.865Z,399.00
2023-04-28T05:11:17.875Z,398.00
2023-04-28T05:12:17.830Z,397.00
2023-04-28T05:13:17.818Z,400.00
2023-04-28T05:14:18.103Z,400.00
2023-04-28T05:15:17.799Z,401.00
2023-04-28T05:16:17.855Z,404.00
2023-04-28T05:17:17.888Z,412.00
2023-04-28T05:18:17.966Z,419.00
2023-04-28T05:19:17.997Z,421.00
2023-04-28T05:20:18.049Z,422.00
2023-04-28T05:21:18.147Z,423.00
2023-04-28T05:22:18.163Z,425.00
2023-04-28T05:23:18.208Z,422.00
2023-04-28T05:24:18.473Z,421.00
2023-04-28T05:25:18.286Z,421.00
2023-04-28T05:26:18.282Z,420.00
2023-04-28T05:27:18.297Z,418.00
2023-04-28T05:28:20.108Z,418.00
2023-04-28T05:29:18.248Z,420.00
2023-04-28T05:30:18.254Z,422.00
2023-04-28T05:31:18.264Z,431.00
2023-04-28T05:32:18.249Z,531.00
2023-04-28T05:33:18.234Z,496.00
2023-04-28T05:34:18.432Z,489.00
2023-04-28T05:35:18.212Z,524.00
2023-04-28T05:36:18.206Z,548.00
2023-04-28T05:37:18.293Z,539.00
2023-04-28T05:38:18.213Z,533.00
2023-04-28T05:39:18.165Z,539.00
2023-04-28T05:40:18.194Z,539.00
2023-04-28T05:41:18.137Z,532.00
2023-04-28T05:42:18.157Z,534.00
2023-04-28T05:43:18.143Z,537.00
2023-04-28T05:44:18.399Z,540.00
2023-04-28T05:45:18.161Z,546.00
2023-04-28T05:46:29.122Z,548.00
2023-04-28T05:47:19.098Z,550.00
2023-04-28T05:48:18.119Z,551.00
2023-04-28T05:49:18.092Z,548.00
2023-04-28T05:50:18.102Z,548.00
2023-04-28T05:51:18.066Z,548.00
2023-04-28T05:52:18.079Z,545.00
2023-04-28T05:53:18.062Z,546.00
2023-04-28T05:54:18.273Z,547.00
2023-04-28T05:55:18.174Z,543.00
2023-04-28T05:56:18.225Z,537.00
2023-04-28T05:57:18.286Z,531.00
2023-04-28T05:58:18.323Z,528.00
2023-04-28T05:59:18.572Z,524.00
2023-04-28T06:00:18.457Z,515.00
2023-04-28T06:01:18.740Z,509.00
2023-04-28T06:02:20.604Z,515.00
2023-04-28T06:03:18.730Z,529.00
2023-04-28T06:04:18.974Z,552.00
2023-04-28T06:05:18.989Z,541.00
2023-04-28T06:06:18.825Z,546.00
2023-04-28T06:07:18.515Z,558.00
2023-04-28T06:08:18.742Z,567.00
2023-04-28T06:09:18.806Z,568.00
2023-04-28T06:10:18.515Z,595.00
2023-04-28T06:11:18.498Z,591.00
2023-04-28T06:12:18.497Z,601.00
2023-04-28T06:13:18.503Z,573.00
2023-04-28T06:14:18.695Z,557.00
2023-04-28T06:15:18.453Z,574.00
2023-04-28T06:16:18.486Z,633.00
2023-04-28T06:17:18.459Z,627.00
2023-04-28T06:18:18.473Z,610.00
2023-04-28T06:19:18.862Z,608.00
2023-04-28T06:20:18.444Z,605.00
2023-04-28T06:21:18.446Z,618.00
2023-04-28T06:22:18.422Z,615.00
2023-04-28T06:23:18.401Z,618.00
2023-04-28T06:24:18.750Z,636.00
2023-04-28T06:25:18.376Z,656.00
2023-04-28T06:26:18.734Z,661.00
2023-04-28T06:27:18.421Z,742.00
2023-04-28T06:28:18.377Z,724.00
2023-04-28T06:29:18.389Z,713.00
2023-04-28T06:30:18.345Z,708.00
2023-04-28T06:31:18.405Z,701.00
2023-04-28T06:32:18.324Z,679.00
2023-04-28T06:33:18.325Z,680.00
2023-04-28T06:34:18.539Z,665.00
2023-04-28T06:35:18.303Z,664.00
2023-04-28T06:36:18.415Z,660.00
2023-04-28T06:37:18.424Z,654.00
2023-04-28T06:38:18.460Z,582.00
2023-04-28T06:39:18.495Z,579.00
2023-04-28T06:40:18.520Z,571.00
2023-04-28T06:41:18.601Z,572.00
2023-04-28T06:42:18.606Z,571.00
2023-04-28T06:43:18.641Z,577.00
2023-04-28T06:44:18.950Z,586.00
2023-04-28T06:45:18.688Z,647.00
2023-04-28T06:46:18.767Z,628.00
2023-04-28T06:47:18.762Z,610.00
2023-04-28T06:48:18.832Z,601.00
2023-04-28T06:49:18.817Z,587.00
2023-04-28T06:50:18.847Z,582.00
2023-04-28T06:51:18.896Z,580.00
2023-04-28T06:52:20.057Z,582.00
2023-04-28T06:53:18.913Z,572.00
2023-04-28T06:54:19.260Z,564.00
2023-04-28T06:55:18.884Z,561.00
2023-04-28T06:56:18.899Z,556.00
2023-04-28T06:57:18.890Z,555.00
2023-04-28T06:58:18.873Z,556.00
2023-04-28T06:59:19.435Z,549.00
2023-04-28T07:00:18.867Z,545.00
2023-04-28T07:01:18.886Z,541.00
2023-04-28T07:02:18.868Z,542.00
2023-04-28T07:03:18.949Z,543.00
2023-04-28T07:04:19.053Z,540.00
2023-04-28T07:05:18.840Z,536.00
2023-04-28T07:06:18.798Z,529.00
2023-04-28T07:07:18.822Z,528.00
2023-04-28T07:08:18.815Z,522.00
2023-04-28T07:09:18.777Z,522.00
2023-04-28T07:10:18.823Z,519.00
2023-04-28T07:11:18.780Z,514.00
2023-04-28T07:12:18.798Z,509.00
2023-04-28T07:13:18.788Z,504.00
2023-04-28T07:14:18.941Z,503.00
2023-04-28T07:15:18.751Z,504.00
2023-04-28T07:16:18.773Z,504.00
2023-04-28T07:17:18.731Z,505.00
2023-04-28T07:18:18.769Z,506.00
2023-04-28T07:19:18.740Z,505.00
2023-04-28T07:20:18.702Z,506.00
2023-04-28T07:21:18.738Z,504.00
2023-04-28T07:22:18.768Z,499.00
2023-04-28T07:23:18.728Z,500.00
2023-04-28T07:24:18.880Z,505.00
2023-04-28T07:25:18.696Z,502.00
2023-04-28T07:26:18.683Z,503.00
2023-04-28T07:27:18.665Z,509.00
2023-04-28T07:28:18.677Z,591.00
2023-04-28T07:29:18.667Z,604.00
2023-04-28T07:30:27.337Z,669.00
2023-04-28T07:31:19.637Z,681.00
2023-04-28T07:32:18.702Z,734.00
2023-04-28T07:33:22.543Z,734.00
2023-04-28T07:34:18.894Z,745.00
2023-04-28T07:35:18.646Z,746.00
2023-04-28T07:36:18.630Z,834.00
2023-04-28T07:37:18.628Z,805.00
2023-04-28T07:38:18.625Z,769.00
2023-04-28T07:39:18.626Z,676.00
2023-04-28T07:40:18.603Z,703.00
2023-04-28T07:41:18.578Z,699.00
2023-04-28T07:42:18.590Z,693.00
2023-04-28T07:43:18.551Z,679.00
2023-04-28T07:44:18.782Z,648.00
2023-04-28T07:45:18.563Z,649.00
2023-04-28T07:46:18.561Z,653.00
2023-04-28T07:47:18.549Z,657.00
2023-04-28T07:48:18.559Z,653.00
2023-04-28T07:49:18.530Z,642.00
2023-04-28T07:50:18.548Z,631.00
2023-04-28T07:51:18.550Z,629.00
2023-04-28T07:52:18.512Z,627.00
2023-04-28T07:53:18.502Z,605.00
2023-04-28T07:54:18.875Z,585.00
2023-04-28T07:55:18.512Z,578.00
2023-04-28T07:56:18.495Z,569.00
2023-04-28T07:57:18.484Z,573.00
2023-04-28T07:58:18.455Z,576.00
2023-04-28T07:59:18.489Z,573.00
2023-04-28T08:00:18.818Z,573.00
2023-04-28T08:01:18.436Z,566.00
2023-04-28T08:02:18.516Z,559.00
2023-04-28T08:03:18.630Z,550.00
2023-04-28T08:04:18.817Z,548.00
2023-04-28T08:05:18.701Z,545.00
2023-04-28T08:06:18.409Z,543.00
2023-04-28T08:07:18.420Z,539.00
2023-04-28T08:08:18.392Z,533.00
2023-04-28T08:09:18.451Z,531.00
2023-04-28T08:10:18.783Z,529.00
2023-04-28T08:11:18.802Z,527.00
2023-04-28T08:12:18.378Z,525.00
2023-04-28T08:13:18.401Z,521.00
2023-04-28T08:14:18.644Z,519.00
2023-04-28T08:15:18.616Z,516.00
2023-04-28T08:16:18.524Z,519.00
2023-04-28T08:17:18.529Z,519.00
2023-04-28T08:18:18.629Z,514.00
2023-04-28T08:19:18.529Z,509.00
2023-04-28T08:20:18.743Z,505.00
2023-04-28T08:21:18.593Z,499.00
2023-04-28T08:22:18.599Z,500.00
2023-04-28T08:23:18.613Z,503.00
2023-04-28T08:24:18.739Z,507.00
2023-04-28T08:25:18.732Z,515.00
2023-04-28T08:26:18.802Z,521.00
2023-04-28T08:27:18.813Z,516.00
2023-04-28T08:28:18.832Z,523.00
2023-04-28T08:29:18.867Z,523.00
2023-04-28T08:30:19.251Z,530.00
2023-04-28T08:31:18.989Z,532.00
2023-04-28T08:32:18.969Z,540.00
2023-04-28T08:33:19.143Z,548.00
2023-04-28T08:34:19.980Z,569.00
2023-04-28T08:35:19.047Z,566.00
2023-04-28T08:36:19.077Z,563.00
2023-04-28T08:37:19.097Z,561.00
2023-04-28T08:38:19.122Z,561.00
2023-04-28T08:39:19.214Z,579.00
2023-04-28T08:40:19.271Z,628.00
2023-04-28T08:41:19.312Z,563.00
2023-04-28T08:42:19.403Z,559.00
2023-04-28T08:43:19.413Z,565.00
2023-04-28T08:44:19.613Z,572.00
2023-04-28T08:45:19.544Z,582.00
2023-04-28T08:46:19.530Z,588.00
2023-04-28T08:47:19.550Z,593.00
2023-04-28T08:48:19.579Z,594.00
2023-04-28T08:49:19.697Z,598.00
2023-04-28T08:50:19.678Z,601.00
2023-04-28T08:51:19.722Z,603.00
2023-04-28T08:52:19.834Z,607.00
2023-04-28T08:53:19.796Z,606.00
2023-04-28T08:54:26.704Z,603.00
2023-04-28T08:55:20.753Z,601.00
2023-04-28T08:56:19.808Z,594.00
2023-04-28T08:57:19.808Z,592.00
2023-04-28T08:58:19.770Z,590.00
2023-04-28T08:59:19.741Z,586.00
2023-04-28T09:00:19.778Z,579.00
2023-04-28T09:01:19.763Z,571.00
2023-04-28T09:02:19.911Z,566.00
2023-04-28T09:03:19.851Z,564.00
2023-04-28T09:04:20.067Z,563.00
2023-04-28T09:05:19.895Z,549.00
2023-04-28T09:06:19.823Z,513.00
2023-04-28T09:07:19.680Z,513.00
2023-04-28T09:08:19.721Z,517.00
2023-04-28T09:09:19.719Z,516.00
2023-04-28T09:10:19.710Z,520.00
2023-04-28T09:11:19.711Z,519.00
2023-04-28T09:12:19.648Z,519.00
2023-04-28T09:13:19.706Z,518.00
2023-04-28T09:14:19.721Z,515.00
2023-04-28T09:15:19.778Z,512.00
2023-04-28T09:16:19.764Z,509.00
2023-04-28T09:17:19.772Z,505.00
2023-04-28T09:18:19.786Z,505.00
2023-04-28T09:19:19.858Z,504.00
2023-04-28T09:20:20.285Z,502.00
2023-04-28T09:21:19.886Z,501.00
2023-04-28T09:22:26.683Z,496.00
2023-04-28T09:23:20.961Z,491.00
2023-04-28T09:24:19.881Z,484.00
2023-04-28T09:25:20.040Z,481.00
2023-04-28T09:26:19.859Z,482.00
2023-04-28T09:27:19.913Z,490.00
2023-04-28T09:28:19.972Z,490.00
2023-04-28T09:29:19.856Z,499.00
2023-04-28T09:30:19.877Z,585.00
2023-04-28T09:31:19.918Z,590.00
2023-04-28T09:32:20.058Z,581.00
2023-04-28T09:33:19.851Z,574.00
2023-04-28T09:34:19.870Z,572.00
2023-04-28T09:35:20.133Z,569.00
2023-04-28T09:36:19.849Z,569.00
2023-04-28T09:37:19.954Z,567.00
2023-04-28T09:38:19.875Z,566.00
2023-04-28T09:39:19.948Z,559.00
2023-04-28T09:40:19.991Z,547.00
2023-04-28T09:41:19.977Z,550.00
2023-04-28T09:42:19.988Z,554.00
2023-04-28T09:43:21.958Z,558.00
2023-04-28T09:44:20.072Z,559.00
2023-04-28T09:45:20.351Z,559.00
2023-04-28T09:46:20.280Z,557.00
2023-04-28T09:47:20.115Z,555.00
2023-04-28T09:48:20.113Z,552.00
2023-04-28T09:49:20.168Z,544.00
2023-04-28T09:50:20.306Z,539.00
2023-04-28T09:51:20.171Z,534.00
2023-04-28T09:52:20.213Z,533.00
2023-04-28T09:53:20.247Z,533.00
2023-04-28T09:54:20.245Z,536.00
2023-04-28T09:55:20.307Z,530.00
2023-04-28T09:56:20.298Z,527.00
2023-04-28T09:57:20.329Z,525.00
2023-04-28T09:58:20.826Z,524.00
2023-04-28T09:59:20.849Z,519.00
2023-04-28T10:00:20.380Z,515.00
2023-04-28T10:01:20.492Z,510.00
2023-04-28T10:02:41.769Z,511.00
2023-04-28T10:03:23.245Z,511.00
2023-04-28T10:04:20.521Z,510.00
2023-04-28T10:05:20.513Z,508.00
2023-04-28T10:06:20.349Z,507.00
2023-04-28T10:07:20.378Z,506.00
2023-04-28T10:08:20.407Z,508.00
2023-04-28T10:09:20.350Z,508.00
2023-04-28T10:10:20.347Z,510.00
2023-04-28T10:11:20.366Z,511.00
2023-04-28T10:12:20.338Z,512.00
2023-04-28T10:13:20.302Z,510.00
2023-04-28T10:14:20.339Z,508.00
2023-04-28T10:15:20.312Z,506.00
2023-04-28T10:16:20.381Z,507.00
2023-04-28T10:17:20.308Z,509.00
2023-04-28T10:18:20.301Z,506.00
2023-04-28T10:19:20.301Z,500.00
2023-04-28T10:20:20.285Z,505.00
2023-04-28T10:21:20.260Z,511.00
2023-04-28T10:22:20.295Z,515.00
2023-04-28T10:23:20.234Z,515.00
2023-04-28T10:24:20.244Z,516.00
2023-04-28T10:25:20.256Z,524.00
2023-04-28T10:26:20.244Z,528.00
2023-04-28T10:27:20.271Z,529.00
2023-04-28T10:28:20.194Z,530.00
2023-04-28T10:29:20.198Z,531.00
2023-04-28T10:30:27.465Z,528.00
2023-04-28T10:31:21.333Z,531.00
2023-04-28T10:32:20.276Z,527.00
2023-04-28T10:33:20.170Z,530.00
2023-04-28T10:34:20.175Z,533.00
2023-04-28T10:35:20.180Z,538.00
2023-04-28T10:36:27.000Z,542.00
2023-04-28T10:37:21.177Z,546.00
2023-04-28T10:38:20.345Z,545.00
2023-04-28T10:39:20.150Z,557.00
2023-04-28T10:40:20.372Z,565.00
2023-04-28T10:41:20.334Z,567.00
2023-04-28T10:42:20.141Z,564.00
2023-04-28T10:43:20.130Z,561.00
2023-04-28T10:44:20.146Z,561.00
2023-04-28T10:45:20.094Z,564.00
2023-04-28T10:46:20.128Z,567.00
2023-04-28T10:47:20.096Z,566.00
2023-04-28T10:48:20.100Z,566.00
2023-04-28T10:49:20.067Z,566.00
2023-04-28T10:50:21.949Z,567.00
2023-04-28T10:51:20.136Z,568.00
2023-04-28T10:52:20.065Z,568.00
2023-04-28T10:53:20.080Z,568.00
2023-04-28T10:54:20.094Z,563.00
2023-04-28T10:55:22.431Z,565.00
2023-04-28T10:56:20.319Z,567.00
2023-04-28T10:57:20.306Z,566.00
2023-04-28T10:58:20.297Z,563.00
2023-04-28T10:59:20.320Z,558.00
2023-04-28T11:00:20.342Z,552.00
2023-04-28T11:01:20.349Z,549.00
2023-04-28T11:02:20.399Z,547.00
2023-04-28T11:03:20.422Z,549.00
2023-04-28T11:04:20.539Z,551.00
2023-04-28T11:05:20.531Z,543.00
2023-04-28T11:06:20.357Z,538.00
2023-04-28T11:07:20.372Z,540.00
2023-04-28T11:08:20.414Z,542.00
2023-04-28T11:09:20.465Z,543.00
2023-04-28T11:10:20.413Z,539.00
2023-04-28T11:11:20.470Z,538.00
2023-04-28T11:12:20.418Z,540.00
2023-04-28T11:13:20.861Z,542.00
2023-04-28T11:14:20.486Z,540.00
2023-04-28T11:15:20.479Z,539.00
2023-04-28T11:16:20.516Z,538.00
2023-04-28T11:17:20.900Z,537.00
2023-04-28T11:18:20.885Z,540.00
2023-04-28T11:19:20.592Z,545.00
2023-04-28T11:20:20.586Z,544.00
2023-04-28T11:21:20.826Z,547.00
2023-04-28T11:22:20.691Z,558.00
2023-04-28T11:23:20.641Z,571.00
2023-04-28T11:24:20.657Z,581.00
2023-04-28T11:25:20.700Z,589.00
2023-04-28T11:26:20.728Z,589.00
2023-04-28T11:27:20.678Z,595.00
2023-04-28T11:28:20.709Z,593.00
2023-04-28T11:29:20.708Z,597.00
2023-04-28T11:30:20.709Z,598.00
2023-04-28T11:31:20.801Z,597.00
2023-04-28T11:32:20.778Z,594.00
2023-04-28T11:33:20.768Z,589.00
2023-04-28T11:34:20.816Z,577.00
2023-04-28T11:35:20.807Z,576.00
2023-04-28T11:36:20.904Z,582.00
2023-04-28T11:37:20.843Z,583.00
2023-04-28T11:38:20.859Z,582.00
2023-04-28T11:39:20.847Z,577.00
2023-04-28T11:40:20.853Z,569.00
2023-04-28T11:41:20.931Z,558.00
2023-04-28T11:42:20.860Z,551.00
2023-04-28T11:43:20.920Z,543.00
2023-04-28T11:44:20.930Z,524.00
2023-04-28T11:45:20.882Z,521.00
2023-04-28T11:46:21.013Z,524.00
2023-04-28T11:47:20.900Z,523.00
2023-04-28T11:48:20.923Z,519.00
2023-04-28T11:49:20.935Z,515.00
2023-04-28T11:50:20.906Z,515.00
2023-04-28T11:51:20.906Z,514.00
2023-04-28T11:52:20.941Z,512.00
2023-04-28T11:53:22.162Z,510.00
2023-04-28T11:54:20.917Z,505.00
2023-04-28T11:55:20.925Z,507.00
2023-04-28T11:56:20.929Z,504.00
2023-04-28T11:57:20.948Z,503.00
2023-04-28T11:58:20.947Z,500.00
2023-04-28T11:59:20.915Z,499.00
2023-04-28T12:00:20.967Z,498.00
2023-04-28T12:01:20.965Z,496.00
2023-04-28T12:02:20.975Z,496.00
2023-04-28T12:03:21.161Z,490.00
2023-04-28T12:04:20.962Z,486.00
2023-04-28T12:05:21.033Z,484.00
2023-04-28T12:06:20.999Z,482.00
2023-04-28T12:07:20.989Z,483.00
2023-04-28T12:08:20.971Z,483.00
2023-04-28T12:09:20.996Z,481.00
2023-04-28T12:10:20.991Z,477.00
2023-04-28T12:11:21.894Z,478.00
2023-04-28T12:12:26.385Z,476.00
2023-04-28T12:13:22.016Z,474.00
2023-04-28T12:14:21.020Z,473.00
2023-04-28T12:15:21.905Z,471.00
2023-04-28T12:16:21.039Z,471.00
2023-04-28T12:17:21.053Z,470.00
2023-04-28T12:18:20.969Z,468.00
2023-04-28T12:19:20.993Z,467.00
2023-04-28T12:20:20.947Z,466.00
2023-04-28T12:21:20.962Z,467.00
2023-04-28T12:22:20.950Z,466.00
2023-04-28T12:23:20.949Z,463.00
2023-04-28T12:24:20.932Z,456.00
2023-04-28T12:25:20.937Z,450.00
2023-04-28T12:26:20.965Z,453.00
2023-04-28T12:27:20.909Z,455.00
2023-04-28T12:28:20.902Z,457.00
2023-04-28T12:29:20.878Z,456.00